createdAt,value
2022-11-17T00:03:50.069Z,10.7
2022-11-17T00:09:29.988Z,10.8
2022-11-17T00:15:10.334Z,10.8
2022-11-17T00:20:51.189Z,10.8
2022-11-17T00:26:31.130Z,10.8
2022-11-17T00:32:11.657Z,10.7
2022-11-17T00:37:52.478Z,10.7
2022-11-17T00:43:32.957Z,10.7
2022-11-17T00:49:15.778Z,10.7
2022-11-17T00:54:56.679Z,10.7
2022-11-17T01:00:37.713Z,10.8
2022-11-17T01:06:18.013Z,10.8
2022-11-17T01:11:58.802Z,10.9
2022-11-17T01:17:39.017Z,11
2022-11-17T01:23:19.448Z,11
2022-11-17T01:29:00.600Z,11.1
2022-11-17T01:34:41.170Z,11.1
2022-11-17T01:40:21.525Z,11.2
2022-11-17T01:46:02.475Z,11.3
2022-11-17T01:51:42.935Z,11.3
2022-11-17T01:57:23.286Z,11.4
2022-11-17T02:03:05.024Z,11.3
2022-11-17T02:08:45.673Z,11.3
2022-11-17T02:14:26.169Z,11.2
2022-11-17T02:20:07.192Z,11.2
2022-11-17T02:25:47.333Z,11.1
2022-11-17T02:31:28.342Z,11
2022-11-17T02:37:09.275Z,10.9
2022-11-17T02:42:49.335Z,10.8
2022-11-17T02:48:29.389Z,10.8
2022-11-17T02:54:10.671Z,10.8
2022-11-17T02:59:50.839Z,10.8
2022-11-17T03:05:31.219Z,10.8
2022-11-17T03:11:15.779Z,10.7
2022-11-17T03:16:56.255Z,10.6
2022-11-17T03:22:36.886Z,10.6
2022-11-17T03:28:17.770Z,10.6
2022-11-17T03:33:58.050Z,10.6
2022-11-17T03:39:41.713Z,10.6
2022-11-17T03:45:45.781Z,10.8
2022-11-17T03:51:26.043Z,10.8
2022-11-17T03:57:06.477Z,10.7
2022-11-17T04:02:47.153Z,10.8
2022-11-17T04:08:27.242Z,10.8
2022-11-17T04:14:07.763Z,11
2022-11-17T04:19:48.620Z,11.1
2022-11-17T04:25:29.001Z,11.2
2022-11-17T04:31:09.455Z,11.1
2022-11-17T04:36:50.839Z,11.1
2022-11-17T04:42:31.217Z,11.1
2022-11-17T04:48:11.436Z,11.1
2022-11-17T04:53:52.284Z,11
2022-11-17T05:07:04.762Z,11.1
2022-11-17T05:12:46.248Z,10.9
2022-11-17T05:18:26.427Z,10.9
2022-11-17T05:24:06.633Z,10.9
2022-11-17T05:29:47.762Z,10.9
2022-11-17T05:35:27.938Z,10.9
2022-11-17T05:41:08.489Z,10.9
2022-11-17T05:46:49.315Z,10.8
2022-11-17T05:52:29.450Z,10.9
2022-11-17T05:58:09.872Z,10.8
2022-11-17T06:03:50.580Z,10.9
2022-11-17T06:09:34.508Z,11
2022-11-17T06:15:14.952Z,11.1
2022-11-17T06:20:56.215Z,11.1
2022-11-17T06:26:36.382Z,11
2022-11-17T06:32:16.656Z,10.9
2022-11-17T06:37:57.930Z,11
2022-11-17T06:43:38.726Z,11
2022-11-17T06:49:19.475Z,10.9
2022-11-17T06:55:00.262Z,10.8
2022-11-17T07:00:41.212Z,10.6
2022-11-17T07:06:23.396Z,10.6
2022-11-17T07:12:04.470Z,10.7
2022-11-17T07:17:44.847Z,10.7
2022-11-17T07:23:25.134Z,10.6
2022-11-17T07:29:09.222Z,10.6
2022-11-17T07:34:49.431Z,10.4
2022-11-17T07:40:29.719Z,10.4
2022-11-17T07:46:11.193Z,10.5
2022-11-17T07:51:51.717Z,10.6
2022-11-17T07:57:32.071Z,10.8
2022-11-17T08:03:13.352Z,11
2022-11-17T08:08:54.516Z,11.4
2022-11-17T08:14:35.235Z,11.7
2022-11-17T08:20:16.388Z,12.5
2022-11-17T08:25:56.523Z,12.4
2022-11-17T08:31:36.802Z,12.1
2022-11-17T08:37:17.514Z,12.1
2022-11-17T08:43:01.127Z,12
2022-11-17T08:48:42.577Z,12.5
2022-11-17T08:54:23.904Z,12.3
2022-11-17T09:00:04.045Z,12.1
2022-11-17T09:05:44.687Z,12.6
2022-11-17T09:11:26.817Z,14.1
2022-11-17T09:17:06.862Z,14.4
2022-11-17T09:22:47.089Z,14.7
2022-11-17T09:28:28.009Z,14.5
2022-11-17T09:34:07.958Z,13.7
2022-11-17T09:39:48.687Z,13.1
2022-11-17T09:45:31.395Z,13.9
2022-11-17T09:51:11.971Z,14
2022-11-17T09:56:51.967Z,13.2
2022-11-17T10:02:33.203Z,13.1
2022-11-17T10:08:14.758Z,13.2
2022-11-17T10:13:55.273Z,13
2022-11-17T10:19:36.177Z,12.8
2022-11-17T10:25:16.599Z,12.8
2022-11-17T10:30:58.283Z,14.1
2022-11-17T10:36:39.508Z,14.4
2022-11-17T10:42:19.914Z,14.6
2022-11-17T10:47:59.412Z,14.1
2022-11-17T10:53:45.468Z,15.1
2022-11-17T10:59:29.690Z,14.7
2022-11-17T11:05:09.605Z,14.5
2022-11-17T11:10:50.342Z,15.2
2022-11-17T11:16:30.176Z,14.2
2022-11-17T11:22:10.283Z,13.8
2022-11-17T11:27:50.792Z,14.1
2022-11-17T11:33:31.423Z,14.8
2022-11-17T11:39:11.165Z,14
2022-11-17T11:44:54.174Z,14.5
2022-11-17T11:50:37.719Z,14.3
2022-11-17T11:56:22.223Z,14.1
2022-11-17T12:02:01.987Z,13.8
2022-11-17T12:07:42.933Z,13.6
2022-11-17T12:13:23.046Z,13.6
2022-11-17T12:19:03.785Z,13.5
2022-11-17T12:24:43.942Z,13.7
2022-11-17T12:30:24.198Z,13.9
2022-11-17T12:36:05.203Z,13.7
2022-11-17T12:41:45.653Z,14
2022-11-17T12:47:25.974Z,14.3
2022-11-17T12:53:06.559Z,14.2
2022-11-17T12:58:47.133Z,14.4
2022-11-17T13:04:27.743Z,14.9
2022-11-17T13:10:08.331Z,14.4
2022-11-17T13:15:49.003Z,14.5
2022-11-17T13:21:29.459Z,14.6
2022-11-17T13:27:12.737Z,14.4
2022-11-17T13:32:52.691Z,14.4
2022-11-17T13:38:36.201Z,14.4
2022-11-17T13:44:17.234Z,15.1
2022-11-17T13:49:57.613Z,14.6
2022-11-17T13:55:37.842Z,14.7
2022-11-17T14:01:18.650Z,14.6
2022-11-17T14:06:59.226Z,14.6
2022-11-17T14:12:41.025Z,14.7
2022-11-17T14:18:21.968Z,14.5
2022-11-17T14:24:02.832Z,14.2
2022-11-17T14:29:43.234Z,13.7
2022-11-17T14:35:24.104Z,13.6
2022-11-17T14:41:05.114Z,13.6
2022-11-17T14:46:45.618Z,13.4
2022-11-17T14:52:25.972Z,13.2
2022-11-17T14:58:06.342Z,12.9
2022-11-17T15:03:49.377Z,12.7
2022-11-17T15:09:32.096Z,12.6
2022-11-17T15:15:12.883Z,12.5
2022-11-17T15:20:53.577Z,12.6
2022-11-17T15:26:34.139Z,12.6
2022-11-17T15:32:14.387Z,12.6
2022-11-17T15:37:57.248Z,12.4
2022-11-17T15:43:38.030Z,12.2
2022-11-17T15:49:18.701Z,12
2022-11-17T15:55:00.236Z,11.8
2022-11-17T16:00:40.776Z,11.7
2022-11-17T16:06:21.796Z,11.6
2022-11-17T16:12:02.262Z,11.5
2022-11-17T16:17:43.619Z,11.3
2022-11-17T16:23:24.079Z,11.3
2022-11-17T16:29:04.527Z,11.3
2022-11-17T16:34:45.374Z,11.3
2022-11-17T16:40:25.739Z,11.2
2022-11-17T16:46:06.104Z,11.1
2022-11-17T16:51:47.037Z,10.9
2022-11-17T16:57:27.822Z,10.8
2022-11-17T17:03:08.472Z,10.7
2022-11-17T17:08:49.912Z,10.7
2022-11-17T17:14:33.448Z,10.6
2022-11-17T17:20:14.194Z,10.5
2022-11-17T17:25:55.494Z,10.4
2022-11-17T17:31:35.727Z,10.4
2022-11-17T17:37:16.136Z,10.3
2022-11-17T17:42:56.716Z,10.3
2022-11-17T17:48:37.167Z,10.2
2022-11-17T17:54:17.694Z,10
2022-11-17T17:59:58.644Z,9.9
2022-11-17T18:05:39.342Z,9.9
2022-11-17T18:11:19.556Z,9.8
2022-11-17T18:17:00.313Z,9.9
2022-11-17T18:22:40.802Z,9.8
2022-11-17T18:28:21.428Z,9.6
2022-11-17T18:34:02.611Z,9.6
2022-11-17T18:39:43.303Z,9.5
2022-11-17T18:45:26.024Z,9.5
2022-11-17T18:51:24.061Z,9.4
2022-11-17T18:57:07.521Z,9.4
2022-11-17T19:02:50.818Z,9.3
2022-11-17T19:08:32.577Z,9.3
2022-11-17T19:14:13.378Z,9.4
2022-11-17T19:19:57.208Z,9.3
2022-11-17T19:25:39.328Z,9.2
2022-11-17T19:31:23.539Z,9.2
2022-11-17T19:37:03.854Z,9.2
2022-11-17T19:42:44.621Z,9.1
2022-11-17T19:48:25.204Z,9.1
2022-11-17T19:54:18.169Z,9.2
2022-11-17T19:59:59.580Z,9.1
2022-11-17T20:05:40.239Z,9.1
2022-11-17T20:11:20.600Z,9
2022-11-17T20:17:05.508Z,9
2022-11-17T20:22:47.362Z,8.9
2022-11-17T20:28:35.035Z,8.8
2022-11-17T20:34:21.626Z,8.8
2022-11-17T20:40:02.588Z,8.7
2022-11-17T20:45:42.775Z,8.6
2022-11-17T20:51:28.548Z,8.6
2022-11-17T20:57:09.150Z,8.5
2022-11-17T21:02:49.414Z,8.6
2022-11-17T21:08:30.053Z,8.6
2022-11-17T21:14:11.046Z,8.5
2022-11-17T21:20:12.411Z,8.6
2022-11-17T21:25:52.764Z,8.4
2022-11-17T21:31:33.242Z,8.1
2022-11-17T21:37:13.592Z,8
2022-11-17T21:42:54.276Z,8
2022-11-17T21:48:34.572Z,8.1
2022-11-17T21:54:15.010Z,8.3
2022-11-17T21:59:55.592Z,8.3
2022-11-17T22:05:35.836Z,8.3
2022-11-17T22:11:16.319Z,8.4
2022-11-17T22:16:56.740Z,8.6
2022-11-17T22:22:37.199Z,8.8
2022-11-17T22:28:17.527Z,8.9
2022-11-17T22:33:58.676Z,9.1
2022-11-17T22:39:38.912Z,9.3
2022-11-17T22:45:19.229Z,9.4
2022-11-17T22:50:59.518Z,9.4
2022-11-17T22:56:42.799Z,9.4
2022-11-17T23:02:23.129Z,9.3
2022-11-17T23:08:08.302Z,9.3
2022-11-17T23:13:50.599Z,9.3
2022-11-17T23:19:34.471Z,9.3
2022-11-17T23:25:14.914Z,9.3
2022-11-17T23:30:55.025Z,9.3
2022-11-17T23:36:35.432Z,9.3
2022-11-17T23:42:16.159Z,9.3
2022-11-17T23:47:56.336Z,9.3
2022-11-17T23:53:36.537Z,9.3
2022-11-17T23:59:17.490Z,9.2
